sensor_id;sensor_type;location;lat;lon;timestamp;temperature;humidity
31661;DHT22;18267;52.234;7.444;2023-12-22T00:01:24;7.20;99.90
31661;DHT22;18267;52.234;7.444;2023-12-22T00:03:49;7.20;99.90
31661;DHT22;18267;52.234;7.444;2023-12-22T00:06:15;7.20;99.90
31661;DHT22;18267;52.234;7.444;2023-12-22T00:08:41;7.20;99.90
31661;DHT22;18267;52.234;7.444;2023-12-22T00:11:07;7.20;99.90
31661;DHT22;18267;52.234;7.444;2023-12-22T00:13:32;7.20;99.90
31661;DHT22;18267;52.234;7.444;2023-12-22T00:15:59;7.20;99.90
31661;DHT22;18267;52.234;7.444;2023-12-22T00:18:26;7.20;99.90
31661;DHT22;18267;52.234;7.444;2023-12-22T00:20:51;7.20;99.90
31661;DHT22;18267;52.234;7.444;2023-12-22T00:23:17;7.20;99.90
31661;DHT22;18267;52.234;7.444;2023-12-22T00:25:43;7.20;99.90
31661;DHT22;18267;52.234;7.444;2023-12-22T00:28:08;7.20;99.90
31661;DHT22;18267;52.234;7.444;2023-12-22T00:30:34;7.30;99.90
31661;DHT22;18267;52.234;7.444;2023-12-22T00:32:59;7.30;99.90
31661;DHT22;18267;52.234;7.444;2023-12-22T00:35:25;7.30;99.90
31661;DHT22;18267;52.234;7.444;2023-12-22T00:37:51;7.30;99.90
31661;DHT22;18267;52.234;7.444;2023-12-22T00:40:18;7.20;99.90
31661;DHT22;18267;52.234;7.444;2023-12-22T00:42:43;7.20;99.90
31661;DHT22;18267;52.234;7.444;2023-12-22T00:45:09;7.20;99.90
31661;DHT22;18267;52.234;7.444;2023-12-22T00:47:34;7.30;99.90
31661;DHT22;18267;52.234;7.444;2023-12-22T00:50:01;7.30;99.90
31661;DHT22;18267;52.234;7.444;2023-12-22T00:52:27;7.30;99.90
31661;DHT22;18267;52.234;7.444;2023-12-22T00:54:52;7.30;99.90
31661;DHT22;18267;52.234;7.444;2023-12-22T00:57:18;7.30;99.90
31661;DHT22;18267;52.234;7.444;2023-12-22T00:59:43;7.30;99.90
31661;DHT22;18267;52.234;7.444;2023-12-22T01:02:16;7.30;99.90
31661;DHT22;18267;52.234;7.444;2023-12-22T01:04:42;7.30;99.90
31661;DHT22;18267;52.234;7.444;2023-12-22T01:07:08;7.20;99.90
31661;DHT22;18267;52.234;7.444;2023-12-22T01:09:35;7.20;99.90
31661;DHT22;18267;52.234;7.444;2023-12-22T01:12:01;7.10;99.90
31661;DHT22;18267;52.234;7.444;2023-12-22T01:14:30;7.10;99.90
31661;DHT22;18267;52.234;7.444;2023-12-22T01:16:56;7.10;99.90
31661;DHT22;18267;52.234;7.444;2023-12-22T01:19:22;7.10;99.90
31661;DHT22;18267;52.234;7.444;2023-12-22T01:21:47;7.10;99.90
31661;DHT22;18267;52.234;7.444;2023-12-22T01:24:13;7.10;99.90
31661;DHT22;18267;52.234;7.444;2023-12-22T01:26:39;7.10;99.90
31661;DHT22;18267;52.234;7.444;2023-12-22T01:29:04;7.20;99.90
31661;DHT22;18267;52.234;7.444;2023-12-22T01:31:30;7.30;99.90
31661;DHT22;18267;52.234;7.444;2023-12-22T01:33:55;7.30;99.90
31661;DHT22;18267;52.234;7.444;2023-12-22T01:36:21;7.30;99.90
31661;DHT22;18267;52.234;7.444;2023-12-22T01:38:46;7.30;99.90
31661;DHT22;18267;52.234;7.444;2023-12-22T01:41:12;7.20;99.90
31661;DHT22;18267;52.234;7.444;2023-12-22T01:43:37;7.30;99.90
31661;DHT22;18267;52.234;7.444;2023-12-22T01:46:03;7.30;99.90
31661;DHT22;18267;52.234;7.444;2023-12-22T01:48:36;7.30;99.90
31661;DHT22;18267;52.234;7.444;2023-12-22T01:51:04;7.20;99.90
31661;DHT22;18267;52.234;7.444;2023-12-22T01:53:31;7.20;99.90
31661;DHT22;18267;52.234;7.444;2023-12-22T01:55:57;7.30;99.90
31661;DHT22;18267;52.234;7.444;2023-12-22T01:58:26;7.30;99.90
31661;DHT22;18267;52.234;7.444;2023-12-22T02:00:53;7.30;99.90
31661;DHT22;18267;52.234;7.444;2023-12-22T02:03:19;7.30;99.90
31661;DHT22;18267;52.234;7.444;2023-12-22T02:05:44;7.30;99.90
31661;DHT22;18267;52.234;7.444;2023-12-22T02:08:11;7.30;99.90
31661;DHT22;18267;52.234;7.444;2023-12-22T02:10:37;7.30;99.90
31661;DHT22;18267;52.234;7.444;2023-12-22T02:13:04;7.20;99.90
31661;DHT22;18267;52.234;7.444;2023-12-22T02:15:30;7.10;99.90
31661;DHT22;18267;52.234;7.444;2023-12-22T02:18:04;7.10;99.90
31661;DHT22;18267;52.234;7.444;2023-12-22T02:20:32;7.10;99.90
31661;DHT22;18267;52.234;7.444;2023-12-22T02:22:58;7.10;99.90
31661;DHT22;18267;52.234;7.444;2023-12-22T02:25:23;7.20;99.90
31661;DHT22;18267;52.234;7.444;2023-12-22T02:27:50;7.20;99.90
31661;DHT22;18267;52.234;7.444;2023-12-22T02:30:26;7.20;99.90
31661;DHT22;18267;52.234;7.444;2023-12-22T02:32:55;7.20;99.90
31661;DHT22;18267;52.234;7.444;2023-12-22T02:35:24;7.20;99.90
31661;DHT22;18267;52.234;7.444;2023-12-22T02:37:51;7.30;99.90
31661;DHT22;18267;52.234;7.444;2023-12-22T02:40:17;7.30;99.90
31661;DHT22;18267;52.234;7.444;2023-12-22T02:42:44;7.30;99.90
31661;DHT22;18267;52.234;7.444;2023-12-22T02:45:15;7.30;99.90
31661;DHT22;18267;52.234;7.444;2023-12-22T02:47:41;7.20;99.90
31661;DHT22;18267;52.234;7.444;2023-12-22T02:50:07;7.20;99.90
31661;DHT22;18267;52.234;7.444;2023-12-22T02:52:33;7.30;99.90
31661;DHT22;18267;52.234;7.444;2023-12-22T02:54:59;7.30;99.90
31661;DHT22;18267;52.234;7.444;2023-12-22T02:57:24;7.40;99.90
31661;DHT22;18267;52.234;7.444;2023-12-22T02:59:50;7.30;99.90
31661;DHT22;18267;52.234;7.444;2023-12-22T03:02:15;7.30;99.90
31661;DHT22;18267;52.234;7.444;2023-12-22T03:04:41;7.30;99.90
31661;DHT22;18267;52.234;7.444;2023-12-22T03:07:06;7.30;99.90
31661;DHT22;18267;52.234;7.444;2023-12-22T03:09:33;7.40;99.90
31661;DHT22;18267;52.234;7.444;2023-12-22T03:12:00;7.30;99.90
31661;DHT22;18267;52.234;7.444;2023-12-22T03:14:31;7.40;99.90
31661;DHT22;18267;52.234;7.444;2023-12-22T03:17:01;7.40;99.90
31661;DHT22;18267;52.234;7.444;2023-12-22T03:19:27;7.50;99.90
31661;DHT22;18267;52.234;7.444;2023-12-22T03:21:52;7.40;99.90
31661;DHT22;18267;52.234;7.444;2023-12-22T03:24:18;7.40;99.90
31661;DHT22;18267;52.234;7.444;2023-12-22T03:26:48;7.40;99.90
31661;DHT22;18267;52.234;7.444;2023-12-22T03:29:14;7.40;99.90
31661;DHT22;18267;52.234;7.444;2023-12-22T03:31:39;7.30;99.90
31661;DHT22;18267;52.234;7.444;2023-12-22T03:34:05;7.30;99.90
31661;DHT22;18267;52.234;7.444;2023-12-22T03:36:31;7.10;99.90
31661;DHT22;18267;52.234;7.444;2023-12-22T03:38:56;7.00;99.90
31661;DHT22;18267;52.234;7.444;2023-12-22T03:41:22;6.90;99.90
31661;DHT22;18267;52.234;7.444;2023-12-22T03:43:47;7.00;99.90
31661;DHT22;18267;52.234;7.444;2023-12-22T03:46:13;7.00;99.90
31661;DHT22;18267;52.234;7.444;2023-12-22T03:48:39;6.90;99.90
31661;DHT22;18267;52.234;7.444;2023-12-22T03:51:04;6.80;99.90
31661;DHT22;18267;52.234;7.444;2023-12-22T03:53:30;6.80;99.90
31661;DHT22;18267;52.234;7.444;2023-12-22T03:55:55;6.80;99.90
31661;DHT22;18267;52.234;7.444;2023-12-22T03:58:21;6.80;99.90
31661;DHT22;18267;52.234;7.444;2023-12-22T04:00:46;6.90;99.90
31661;DHT22;18267;52.234;7.444;2023-12-22T04:03:12;6.80;99.90
31661;DHT22;18267;52.234;7.444;2023-12-22T04:05:38;6.70;99.90
31661;DHT22;18267;52.234;7.444;2023-12-22T04:08:04;6.60;99.90
31661;DHT22;18267;52.234;7.444;2023-12-22T04:10:30;6.50;99.90
31661;DHT22;18267;52.234;7.444;2023-12-22T04:12:55;6.50;99.90
31661;DHT22;18267;52.234;7.444;2023-12-22T04:15:21;6.40;99.90
31661;DHT22;18267;52.234;7.444;2023-12-22T04:17:46;6.50;99.90
31661;DHT22;18267;52.234;7.444;2023-12-22T04:20:12;6.40;99.90
31661;DHT22;18267;52.234;7.444;2023-12-22T04:22:38;6.30;99.90
31661;DHT22;18267;52.234;7.444;2023-12-22T04:25:04;6.30;99.90
31661;DHT22;18267;52.234;7.444;2023-12-22T04:27:31;6.20;99.90
31661;DHT22;18267;52.234;7.444;2023-12-22T04:29:57;6.20;99.90
31661;DHT22;18267;52.234;7.444;2023-12-22T04:32:22;6.20;99.90
31661;DHT22;18267;52.234;7.444;2023-12-22T04:34:48;6.30;99.90
31661;DHT22;18267;52.234;7.444;2023-12-22T04:37:13;6.20;99.90
31661;DHT22;18267;52.234;7.444;2023-12-22T04:39:39;6.10;99.90
31661;DHT22;18267;52.234;7.444;2023-12-22T04:42:05;6.10;99.90
31661;DHT22;18267;52.234;7.444;2023-12-22T04:44:30;6.00;99.90
31661;DHT22;18267;52.234;7.444;2023-12-22T04:46:56;6.00;99.90
31661;DHT22;18267;52.234;7.444;2023-12-22T04:49:21;6.10;99.90
31661;DHT22;18267;52.234;7.444;2023-12-22T04:51:47;6.10;99.90
31661;DHT22;18267;52.234;7.444;2023-12-22T04:54:12;6.20;99.90
31661;DHT22;18267;52.234;7.444;2023-12-22T04:56:38;6.20;99.90
31661;DHT22;18267;52.234;7.444;2023-12-22T04:59:03;6.20;99.90
31661;DHT22;18267;52.234;7.444;2023-12-22T05:01:29;6.10;99.90
31661;DHT22;18267;52.234;7.444;2023-12-22T05:03:54;6.20;99.90
31661;DHT22;18267;52.234;7.444;2023-12-22T05:06:20;6.20;99.90
31661;DHT22;18267;52.234;7.444;2023-12-22T05:08:46;6.20;99.90
31661;DHT22;18267;52.234;7.444;2023-12-22T05:11:12;6.30;99.90
31661;DHT22;18267;52.234;7.444;2023-12-22T05:13:37;6.30;99.90
31661;DHT22;18267;52.234;7.444;2023-12-22T05:16:03;6.30;99.90
31661;DHT22;18267;52.234;7.444;2023-12-22T05:18:30;6.40;99.90
31661;DHT22;18267;52.234;7.444;2023-12-22T05:20:55;6.40;99.90
31661;DHT22;18267;52.234;7.444;2023-12-22T05:23:21;6.40;99.90
31661;DHT22;18267;52.234;7.444;2023-12-22T05:25:47;6.40;99.90
31661;DHT22;18267;52.234;7.444;2023-12-22T05:28:12;6.40;99.90
31661;DHT22;18267;52.234;7.444;2023-12-22T05:30:38;6.40;99.90
31661;DHT22;18267;52.234;7.444;2023-12-22T05:33:03;6.40;99.90
31661;DHT22;18267;52.234;7.444;2023-12-22T05:35:29;6.50;99.90
31661;DHT22;18267;52.234;7.444;2023-12-22T05:37:54;6.50;99.90
31661;DHT22;18267;52.234;7.444;2023-12-22T05:40:20;6.50;99.90
31661;DHT22;18267;52.234;7.444;2023-12-22T05:42:45;6.50;99.90
31661;DHT22;18267;52.234;7.444;2023-12-22T05:45:11;6.50;99.90
31661;DHT22;18267;52.234;7.444;2023-12-22T05:47:37;6.50;99.90
31661;DHT22;18267;52.234;7.444;2023-12-22T05:50:04;6.50;99.90
31661;DHT22;18267;52.234;7.444;2023-12-22T05:52:29;6.50;99.90
31661;DHT22;18267;52.234;7.444;2023-12-22T05:54:55;6.60;99.90
31661;DHT22;18267;52.234;7.444;2023-12-22T05:57:20;6.50;99.90
31661;DHT22;18267;52.234;7.444;2023-12-22T05:59:46;6.60;99.90
31661;DHT22;18267;52.234;7.444;2023-12-22T06:02:11;6.50;99.90
31661;DHT22;18267;52.234;7.444;2023-12-22T06:04:38;6.50;99.90
31661;DHT22;18267;52.234;7.444;2023-12-22T06:07:04;6.50;99.90
31661;DHT22;18267;52.234;7.444;2023-12-22T06:09:30;6.60;99.90
31661;DHT22;18267;52.234;7.444;2023-12-22T06:11:55;6.60;99.90
31661;DHT22;18267;52.234;7.444;2023-12-22T06:14:21;6.60;99.90
31661;DHT22;18267;52.234;7.444;2023-12-22T06:16:46;6.70;99.90
31661;DHT22;18267;52.234;7.444;2023-12-22T06:19:12;6.70;99.90
31661;DHT22;18267;52.234;7.444;2023-12-22T06:21:38;6.70;99.90
31661;DHT22;18267;52.234;7.444;2023-12-22T06:24:04;6.80;99.90
31661;DHT22;18267;52.234;7.444;2023-12-22T06:26:30;6.80;99.90
31661;DHT22;18267;52.234;7.444;2023-12-22T06:28:56;6.80;99.90
31661;DHT22;18267;52.234;7.444;2023-12-22T06:31:22;6.80;99.90
31661;DHT22;18267;52.234;7.444;2023-12-22T06:33:48;6.90;99.90
31661;DHT22;18267;52.234;7.444;2023-12-22T06:36:24;6.90;99.90
31661;DHT22;18267;52.234;7.444;2023-12-22T06:38:50;6.80;99.90
31661;DHT22;18267;52.234;7.444;2023-12-22T06:41:25;6.90;99.90
31661;DHT22;18267;52.234;7.444;2023-12-22T06:43:51;7.00;99.90
31661;DHT22;18267;52.234;7.444;2023-12-22T06:46:21;7.00;99.90
31661;DHT22;18267;52.234;7.444;2023-12-22T06:48:55;6.90;99.90
31661;DHT22;18267;52.234;7.444;2023-12-22T06:51:28;6.80;99.90
31661;DHT22;18267;52.234;7.444;2023-12-22T06:53:54;6.90;99.90
31661;DHT22;18267;52.234;7.444;2023-12-22T06:56:22;6.90;99.90
31661;DHT22;18267;52.234;7.444;2023-12-22T06:58:48;6.90;99.90
31661;DHT22;18267;52.234;7.444;2023-12-22T07:01:28;6.80;99.90
31661;DHT22;18267;52.234;7.444;2023-12-22T07:03:53;6.80;99.90
31661;DHT22;18267;52.234;7.444;2023-12-22T07:06:21;6.90;99.90
31661;DHT22;18267;52.234;7.444;2023-12-22T07:11:53;6.80;99.90
31661;DHT22;18267;52.234;7.444;2023-12-22T07:14:19;6.80;99.90
31661;DHT22;18267;52.234;7.444;2023-12-22T07:16:45;6.80;99.90
31661;DHT22;18267;52.234;7.444;2023-12-22T07:19:11;6.90;99.90
31661;DHT22;18267;52.234;7.444;2023-12-22T07:21:40;6.90;99.90
31661;DHT22;18267;52.234;7.444;2023-12-22T07:24:06;6.90;99.90
31661;DHT22;18267;52.234;7.444;2023-12-22T07:26:31;7.00;99.90
31661;DHT22;18267;52.234;7.444;2023-12-22T07:28:57;7.00;99.90
31661;DHT22;18267;52.234;7.444;2023-12-22T07:31:24;7.00;99.90
31661;DHT22;18267;52.234;7.444;2023-12-22T07:33:49;7.10;99.90
31661;DHT22;18267;52.234;7.444;2023-12-22T07:36:15;7.10;99.90
31661;DHT22;18267;52.234;7.444;2023-12-22T07:38:41;7.10;99.90
31661;DHT22;18267;52.234;7.444;2023-12-22T07:41:07;7.10;99.90
31661;DHT22;18267;52.234;7.444;2023-12-22T07:43:32;7.20;99.90
31661;DHT22;18267;52.234;7.444;2023-12-22T07:45:58;7.10;99.90
31661;DHT22;18267;52.234;7.444;2023-12-22T07:48:23;7.20;99.90
31661;DHT22;18267;52.234;7.444;2023-12-22T07:50:55;7.20;99.90
31661;DHT22;18267;52.234;7.444;2023-12-22T07:53:21;7.10;99.90
31661;DHT22;18267;52.234;7.444;2023-12-22T07:55:46;7.10;99.90
31661;DHT22;18267;52.234;7.444;2023-12-22T07:58:12;7.30;99.90
31661;DHT22;18267;52.234;7.444;2023-12-22T08:00:38;7.30;99.90
31661;DHT22;18267;52.234;7.444;2023-12-22T08:03:04;7.20;99.90
31661;DHT22;18267;52.234;7.444;2023-12-22T08:05:29;7.20;99.90
31661;DHT22;18267;52.234;7.444;2023-12-22T08:07:55;7.20;99.90
31661;DHT22;18267;52.234;7.444;2023-12-22T08:10:21;7.20;99.90
31661;DHT22;18267;52.234;7.444;2023-12-22T08:12:46;7.20;99.90
31661;DHT22;18267;52.234;7.444;2023-12-22T08:15:12;7.20;99.90
31661;DHT22;18267;52.234;7.444;2023-12-22T08:17:58;7.20;99.90
31661;DHT22;18267;52.234;7.444;2023-12-22T08:20:23;7.10;99.90
31661;DHT22;18267;52.234;7.444;2023-12-22T08:22:49;7.10;99.90
31661;DHT22;18267;52.234;7.444;2023-12-22T08:25:16;7.10;99.90
31661;DHT22;18267;52.234;7.444;2023-12-22T08:27:45;7.10;99.90
31661;DHT22;18267;52.234;7.444;2023-12-22T08:30:11;7.10;99.90
31661;DHT22;18267;52.234;7.444;2023-12-22T08:32:37;7.20;99.90
31661;DHT22;18267;52.234;7.444;2023-12-22T08:35:03;7.20;99.90
31661;DHT22;18267;52.234;7.444;2023-12-22T08:37:32;7.20;99.90
31661;DHT22;18267;52.234;7.444;2023-12-22T08:39:57;7.20;99.90
31661;DHT22;18267;52.234;7.444;2023-12-22T08:42:26;7.20;99.90
31661;DHT22;18267;52.234;7.444;2023-12-22T08:44:54;7.10;99.90
31661;DHT22;18267;52.234;7.444;2023-12-22T08:47:19;7.10;99.90
31661;DHT22;18267;52.234;7.444;2023-12-22T08:49:45;7.10;99.90
31661;DHT22;18267;52.234;7.444;2023-12-22T08:52:10;7.10;99.90
31661;DHT22;18267;52.234;7.444;2023-12-22T08:54:36;7.20;99.90
31661;DHT22;18267;52.234;7.444;2023-12-22T08:57:04;7.20;99.90
31661;DHT22;18267;52.234;7.444;2023-12-22T08:59:30;7.20;99.90
31661;DHT22;18267;52.234;7.444;2023-12-22T09:01:55;7.30;99.90
31661;DHT22;18267;52.234;7.444;2023-12-22T09:04:21;7.30;99.90
31661;DHT22;18267;52.234;7.444;2023-12-22T09:06:48;7.30;99.90
31661;DHT22;18267;52.234;7.444;2023-12-22T09:09:14;7.30;99.90
31661;DHT22;18267;52.234;7.444;2023-12-22T09:11:40;7.30;99.90
31661;DHT22;18267;52.234;7.444;2023-12-22T09:14:06;7.40;99.90
31661;DHT22;18267;52.234;7.444;2023-12-22T09:16:35;7.30;99.90
31661;DHT22;18267;52.234;7.444;2023-12-22T09:19:01;7.40;99.90
31661;DHT22;18267;52.234;7.444;2023-12-22T09:21:26;7.50;99.90
31661;DHT22;18267;52.234;7.444;2023-12-22T09:23:52;7.40;99.90
31661;DHT22;18267;52.234;7.444;2023-12-22T09:26:18;7.40;99.90
31661;DHT22;18267;52.234;7.444;2023-12-22T09:28:44;7.40;99.90
31661;DHT22;18267;52.234;7.444;2023-12-22T09:31:10;7.50;99.90
31661;DHT22;18267;52.234;7.444;2023-12-22T09:33:36;7.50;99.90
31661;DHT22;18267;52.234;7.444;2023-12-22T09:36:02;7.50;99.90
31661;DHT22;18267;52.234;7.444;2023-12-22T09:38:27;7.50;99.90
31661;DHT22;18267;52.234;7.444;2023-12-22T09:40:54;7.50;99.90
31661;DHT22;18267;52.234;7.444;2023-12-22T09:43:28;7.50;99.90
31661;DHT22;18267;52.234;7.444;2023-12-22T09:45:57;7.50;99.90
31661;DHT22;18267;52.234;7.444;2023-12-22T09:48:23;7.50;99.90
31661;DHT22;18267;52.234;7.444;2023-12-22T09:50:54;7.50;99.90
31661;DHT22;18267;52.234;7.444;2023-12-22T09:53:20;7.50;99.90
31661;DHT22;18267;52.234;7.444;2023-12-22T09:55:47;7.60;99.90
31661;DHT22;18267;52.234;7.444;2023-12-22T09:58:14;7.50;99.90
31661;DHT22;18267;52.234;7.444;2023-12-22T10:00:42;7.50;99.90
31661;DHT22;18267;52.234;7.444;2023-12-22T10:03:10;7.50;99.90
31661;DHT22;18267;52.234;7.444;2023-12-22T10:05:36;7.50;99.90
31661;DHT22;18267;52.234;7.444;2023-12-22T10:08:03;7.70;99.90
31661;DHT22;18267;52.234;7.444;2023-12-22T10:10:30;7.70;99.90
31661;DHT22;18267;52.234;7.444;2023-12-22T10:12:56;7.60;99.90
31661;DHT22;18267;52.234;7.444;2023-12-22T10:15:22;7.60;99.90
31661;DHT22;18267;52.234;7.444;2023-12-22T10:17:54;7.60;99.90
31661;DHT22;18267;52.234;7.444;2023-12-22T10:20:20;7.50;99.90
31661;DHT22;18267;52.234;7.444;2023-12-22T10:22:46;7.50;99.90
31661;DHT22;18267;52.234;7.444;2023-12-22T10:25:15;7.50;99.90
31661;DHT22;18267;52.234;7.444;2023-12-22T10:27:42;7.50;99.90
31661;DHT22;18267;52.234;7.444;2023-12-22T10:30:09;7.60;99.90
31661;DHT22;18267;52.234;7.444;2023-12-22T10:32:40;7.50;99.90
31661;DHT22;18267;52.234;7.444;2023-12-22T10:35:10;7.50;99.90
31661;DHT22;18267;52.234;7.444;2023-12-22T10:37:35;7.40;99.90
31661;DHT22;18267;52.234;7.444;2023-12-22T10:40:04;7.40;99.90
31661;DHT22;18267;52.234;7.444;2023-12-22T10:42:31;7.40;99.90
31661;DHT22;18267;52.234;7.444;2023-12-22T10:44:57;7.40;99.90
31661;DHT22;18267;52.234;7.444;2023-12-22T10:47:23;7.40;99.90
31661;DHT22;18267;52.234;7.444;2023-12-22T10:49:49;7.30;99.90
31661;DHT22;18267;52.234;7.444;2023-12-22T10:52:18;7.40;99.90
31661;DHT22;18267;52.234;7.444;2023-12-22T10:54:44;7.40;99.90
31661;DHT22;18267;52.234;7.444;2023-12-22T10:57:11;7.50;99.90
31661;DHT22;18267;52.234;7.444;2023-12-22T10:59:40;7.50;99.90
31661;DHT22;18267;52.234;7.444;2023-12-22T11:02:16;7.50;99.90
31661;DHT22;18267;52.234;7.444;2023-12-22T11:04:47;7.50;99.90
31661;DHT22;18267;52.234;7.444;2023-12-22T11:07:14;7.50;99.90
31661;DHT22;18267;52.234;7.444;2023-12-22T11:09:43;7.50;99.90
31661;DHT22;18267;52.234;7.444;2023-12-22T11:12:14;7.50;99.90
31661;DHT22;18267;52.234;7.444;2023-12-22T11:14:40;7.50;99.90
31661;DHT22;18267;52.234;7.444;2023-12-22T11:17:06;7.50;99.90
31661;DHT22;18267;52.234;7.444;2023-12-22T11:19:33;7.50;99.90
31661;DHT22;18267;52.234;7.444;2023-12-22T11:22:01;7.50;99.90
31661;DHT22;18267;52.234;7.444;2023-12-22T11:24:29;7.60;99.90
31661;DHT22;18267;52.234;7.444;2023-12-22T11:26:57;7.60;99.90
31661;DHT22;18267;52.234;7.444;2023-12-22T11:29:24;7.60;99.90
31661;DHT22;18267;52.234;7.444;2023-12-22T11:31:54;7.60;99.90
31661;DHT22;18267;52.234;7.444;2023-12-22T11:34:21;7.60;99.90
31661;DHT22;18267;52.234;7.444;2023-12-22T11:36:47;7.60;99.90
31661;DHT22;18267;52.234;7.444;2023-12-22T11:39:14;7.60;99.90
31661;DHT22;18267;52.234;7.444;2023-12-22T11:41:40;7.50;99.90
31661;DHT22;18267;52.234;7.444;2023-12-22T11:44:06;7.60;99.90
31661;DHT22;18267;52.234;7.444;2023-12-22T11:46:32;7.60;99.90
31661;DHT22;18267;52.234;7.444;2023-12-22T11:48:59;7.60;99.90
31661;DHT22;18267;52.234;7.444;2023-12-22T11:51:31;7.60;99.90
31661;DHT22;18267;52.234;7.444;2023-12-22T11:53:57;7.60;99.90
31661;DHT22;18267;52.234;7.444;2023-12-22T11:56:24;7.60;99.90
31661;DHT22;18267;52.234;7.444;2023-12-22T11:58:52;7.70;99.90
31661;DHT22;18267;52.234;7.444;2023-12-22T12:01:21;7.80;99.90
31661;DHT22;18267;52.234;7.444;2023-12-22T12:03:55;7.80;99.90
31661;DHT22;18267;52.234;7.444;2023-12-22T12:08:53;7.70;99.90
31661;DHT22;18267;52.234;7.444;2023-12-22T12:14:21;7.60;99.90
31661;DHT22;18267;52.234;7.444;2023-12-22T12:16:48;7.60;99.90
31661;DHT22;18267;52.234;7.444;2023-12-22T12:19:14;7.50;99.90
31661;DHT22;18267;52.234;7.444;2023-12-22T12:21:40;7.60;99.90
31661;DHT22;18267;52.234;7.444;2023-12-22T12:24:06;7.60;99.90
31661;DHT22;18267;52.234;7.444;2023-12-22T12:26:34;7.60;99.90
31661;DHT22;18267;52.234;7.444;2023-12-22T12:29:01;7.60;99.90
31661;DHT22;18267;52.234;7.444;2023-12-22T12:31:36;7.60;99.90
31661;DHT22;18267;52.234;7.444;2023-12-22T12:34:07;7.60;99.90
31661;DHT22;18267;52.234;7.444;2023-12-22T12:36:34;7.60;99.90
31661;DHT22;18267;52.234;7.444;2023-12-22T12:39:09;7.50;99.90
31661;DHT22;18267;52.234;7.444;2023-12-22T12:41:43;7.50;99.90
31661;DHT22;18267;52.234;7.444;2023-12-22T12:44:10;7.50;99.90
31661;DHT22;18267;52.234;7.444;2023-12-22T12:46:37;7.50;99.90
31661;DHT22;18267;52.234;7.444;2023-12-22T12:49:09;7.50;99.90
31661;DHT22;18267;52.234;7.444;2023-12-22T12:51:43;7.50;99.90
31661;DHT22;18267;52.234;7.444;2023-12-22T12:54:10;7.50;99.90
31661;DHT22;18267;52.234;7.444;2023-12-22T12:56:46;7.50;99.90
31661;DHT22;18267;52.234;7.444;2023-12-22T12:59:13;7.60;99.90
31661;DHT22;18267;52.234;7.444;2023-12-22T13:01:43;7.60;99.90
31661;DHT22;18267;52.234;7.444;2023-12-22T13:04:10;7.60;99.90
31661;DHT22;18267;52.234;7.444;2023-12-22T13:06:46;7.60;99.90
31661;DHT22;18267;52.234;7.444;2023-12-22T13:09:13;7.60;99.90
31661;DHT22;18267;52.234;7.444;2023-12-22T13:11:40;7.50;99.90
31661;DHT22;18267;52.234;7.444;2023-12-22T13:14:07;7.50;99.90
31661;DHT22;18267;52.234;7.444;2023-12-22T13:16:33;7.50;99.90
31661;DHT22;18267;52.234;7.444;2023-12-22T13:19:00;7.50;99.90
31661;DHT22;18267;52.234;7.444;2023-12-22T13:21:27;7.40;99.90
31661;DHT22;18267;52.234;7.444;2023-12-22T13:24:13;7.50;99.90
31661;DHT22;18267;52.234;7.444;2023-12-22T13:26:39;7.50;99.90
31661;DHT22;18267;52.234;7.444;2023-12-22T13:29:09;7.50;99.90
31661;DHT22;18267;52.234;7.444;2023-12-22T13:31:39;7.60;99.90
31661;DHT22;18267;52.234;7.444;2023-12-22T13:34:12;7.60;99.90
31661;DHT22;18267;52.234;7.444;2023-12-22T13:36:39;7.60;99.90
31661;DHT22;18267;52.234;7.444;2023-12-22T13:39:06;7.60;99.90
31661;DHT22;18267;52.234;7.444;2023-12-22T13:41:38;7.70;99.90
31661;DHT22;18267;52.234;7.444;2023-12-22T13:44:05;7.60;99.90
31661;DHT22;18267;52.234;7.444;2023-12-22T13:46:32;7.60;99.90
31661;DHT22;18267;52.234;7.444;2023-12-22T13:48:58;7.50;99.90
31661;DHT22;18267;52.234;7.444;2023-12-22T13:51:24;7.50;99.90
31661;DHT22;18267;52.234;7.444;2023-12-22T13:53:50;7.50;99.90
31661;DHT22;18267;52.234;7.444;2023-12-22T13:56:16;7.60;99.90
31661;DHT22;18267;52.234;7.444;2023-12-22T13:58:46;7.60;99.90
31661;DHT22;18267;52.234;7.444;2023-12-22T14:01:16;7.60;99.90
31661;DHT22;18267;52.234;7.444;2023-12-22T14:03:44;7.60;99.90
31661;DHT22;18267;52.234;7.444;2023-12-22T14:06:12;7.60;99.90
31661;DHT22;18267;52.234;7.444;2023-12-22T14:08:39;7.60;99.90
31661;DHT22;18267;52.234;7.444;2023-12-22T14:11:06;7.60;99.90
31661;DHT22;18267;52.234;7.444;2023-12-22T14:13:32;7.60;99.90
31661;DHT22;18267;52.234;7.444;2023-12-22T14:15:57;7.60;99.90
31661;DHT22;18267;52.234;7.444;2023-12-22T14:18:23;7.60;99.90
31661;DHT22;18267;52.234;7.444;2023-12-22T14:20:48;7.70;99.90
31661;DHT22;18267;52.234;7.444;2023-12-22T14:23:14;7.60;99.90
31661;DHT22;18267;52.234;7.444;2023-12-22T14:25:42;7.60;99.90
31661;DHT22;18267;52.234;7.444;2023-12-22T14:28:08;7.70;99.90
31661;DHT22;18267;52.234;7.444;2023-12-22T14:30:34;7.70;99.90
31661;DHT22;18267;52.234;7.444;2023-12-22T14:32:59;7.70;99.90
31661;DHT22;18267;52.234;7.444;2023-12-22T14:35:25;7.70;99.90
31661;DHT22;18267;52.234;7.444;2023-12-22T14:37:51;7.60;99.90
31661;DHT22;18267;52.234;7.444;2023-12-22T14:40:16;7.60;99.90
31661;DHT22;18267;52.234;7.444;2023-12-22T14:42:42;7.70;99.90
31661;DHT22;18267;52.234;7.444;2023-12-22T14:45:08;7.70;99.90
31661;DHT22;18267;52.234;7.444;2023-12-22T14:47:33;7.70;99.90
31661;DHT22;18267;52.234;7.444;2023-12-22T14:50:00;7.80;99.90
31661;DHT22;18267;52.234;7.444;2023-12-22T14:52:32;7.80;99.90
31661;DHT22;18267;52.234;7.444;2023-12-22T14:55:01;7.70;99.90
31661;DHT22;18267;52.234;7.444;2023-12-22T14:57:28;7.70;99.90
31661;DHT22;18267;52.234;7.444;2023-12-22T14:59:56;7.70;99.90
31661;DHT22;18267;52.234;7.444;2023-12-22T15:02:22;7.60;99.90
31661;DHT22;18267;52.234;7.444;2023-12-22T15:04:48;7.60;99.90
31661;DHT22;18267;52.234;7.444;2023-12-22T15:07:17;7.60;99.90
31661;DHT22;18267;52.234;7.444;2023-12-22T15:09:43;7.50;99.90
31661;DHT22;18267;52.234;7.444;2023-12-22T15:12:08;7.50;99.90
31661;DHT22;18267;52.234;7.444;2023-12-22T15:14:34;7.60;99.90
31661;DHT22;18267;52.234;7.444;2023-12-22T15:16:59;7.60;99.90
31661;DHT22;18267;52.234;7.444;2023-12-22T15:19:25;7.60;99.90
31661;DHT22;18267;52.234;7.444;2023-12-22T15:21:51;7.50;99.90
31661;DHT22;18267;52.234;7.444;2023-12-22T15:24:17;7.60;99.90
31661;DHT22;18267;52.234;7.444;2023-12-22T15:26:42;7.50;99.90
31661;DHT22;18267;52.234;7.444;2023-12-22T15:29:08;7.50;99.90
31661;DHT22;18267;52.234;7.444;2023-12-22T15:31:34;7.50;99.90
31661;DHT22;18267;52.234;7.444;2023-12-22T15:34:00;7.50;99.90
31661;DHT22;18267;52.234;7.444;2023-12-22T15:36:25;7.50;99.90
31661;DHT22;18267;52.234;7.444;2023-12-22T15:38:53;7.50;99.90
31661;DHT22;18267;52.234;7.444;2023-12-22T15:41:19;7.50;99.90
31661;DHT22;18267;52.234;7.444;2023-12-22T15:43:45;7.50;99.90
31661;DHT22;18267;52.234;7.444;2023-12-22T15:46:10;7.40;99.90
31661;DHT22;18267;52.234;7.444;2023-12-22T15:48:36;7.40;99.90
31661;DHT22;18267;52.234;7.444;2023-12-22T15:51:10;7.40;99.90